createdAt,value
2019-02-21T00:00:11.751Z,18.20
2019-02-21T00:01:11.662Z,17.80
2019-02-21T00:02:11.656Z,18.60
2019-02-21T00:03:11.699Z,17.40
2019-02-21T00:04:11.626Z,16.30
2019-02-21T00:05:11.621Z,17.00
2019-02-21T00:06:11.667Z,16.70
2019-02-21T00:07:11.680Z,18.10
2019-02-21T00:08:11.588Z,18.90
2019-02-21T00:09:11.590Z,19.20
2019-02-21T00:10:11.562Z,19.70
2019-02-21T00:11:11.591Z,19.20
2019-02-21T00:12:11.547Z,19.60
2019-02-21T00:13:11.558Z,18.50
2019-02-21T00:14:11.533Z,16.50
2019-02-21T00:15:11.516Z,16.20
2019-02-21T00:16:11.573Z,15.10
2019-02-21T00:17:11.492Z,15.40
2019-02-21T00:18:11.476Z,15.90
2019-02-21T00:19:11.487Z,16.00
2019-02-21T00:20:11.461Z,15.00
2019-02-21T00:21:11.451Z,15.10
2019-02-21T00:22:11.502Z,15.90
2019-02-21T00:23:11.427Z,15.00
2019-02-21T00:24:11.473Z,14.60
2019-02-21T00:25:11.405Z,14.30
2019-02-21T00:26:11.422Z,14.60
2019-02-21T00:27:11.398Z,15.00
2019-02-21T00:28:11.418Z,14.10
2019-02-21T00:29:11.357Z,14.60
2019-02-21T00:30:11.346Z,15.10
2019-02-21T00:31:11.356Z,32.30
2019-02-21T00:32:11.333Z,37.80
2019-02-21T00:33:11.349Z,38.40
2019-02-21T00:34:11.308Z,37.00
2019-02-21T00:35:11.299Z,37.80
2019-02-21T00:36:11.302Z,37.50
2019-02-21T00:37:11.324Z,38.10
2019-02-21T00:38:11.284Z,44.00
2019-02-21T00:39:11.257Z,17.50
2019-02-21T00:40:11.293Z,17.50
2019-02-21T00:41:11.231Z,16.80
2019-02-21T00:42:11.217Z,16.70
2019-02-21T00:43:11.249Z,16.90
2019-02-21T00:44:11.196Z,17.10
2019-02-21T00:45:11.184Z,17.10
2019-02-21T00:46:11.174Z,17.90
2019-02-21T00:47:11.174Z,17.70
2019-02-21T00:48:11.194Z,16.00
2019-02-21T00:49:11.178Z,17.10
2019-02-21T00:50:11.133Z,17.50
2019-02-21T00:51:11.121Z,18.30
2019-02-21T00:52:11.112Z,17.60
2019-02-21T00:53:11.123Z,17.50
2019-02-21T00:54:11.101Z,17.10
2019-02-21T00:55:11.096Z,17.90
2019-02-21T00:56:11.090Z,17.50
2019-02-21T00:57:11.057Z,18.00
2019-02-21T00:58:11.074Z,17.60
2019-02-21T00:59:11.051Z,17.60
2019-02-21T01:00:11.077Z,17.10
2019-02-21T01:01:11.025Z,18.80
2019-02-21T01:02:11.061Z,18.10
2019-02-21T01:03:11.036Z,17.20
2019-02-21T01:04:10.992Z,17.20
2019-02-21T01:05:10.992Z,16.80
2019-02-21T01:06:10.992Z,17.60
2019-02-21T01:07:11.001Z,17.60
2019-02-21T01:08:10.975Z,17.50
2019-02-21T01:09:10.984Z,17.60
2019-02-21T01:10:10.933Z,18.50
2019-02-21T01:11:10.909Z,18.00
2019-02-21T01:12:10.910Z,17.60
2019-02-21T01:13:10.925Z,17.20
2019-02-21T01:14:10.897Z,17.30
2019-02-21T01:15:10.863Z,17.30
2019-02-21T01:16:10.852Z,17.40
2019-02-21T01:17:10.843Z,16.40
2019-02-21T01:18:10.853Z,16.50
2019-02-21T01:19:10.835Z,16.90
2019-02-21T01:20:10.842Z,17.00
2019-02-21T01:21:10.809Z,16.70
2019-02-21T01:22:10.808Z,16.80
2019-02-21T01:23:10.807Z,17.50
2019-02-21T01:24:10.770Z,17.20
2019-02-21T01:25:10.764Z,17.20
2019-02-21T01:26:10.766Z,18.30
2019-02-21T01:27:10.753Z,18.80
2019-02-21T01:28:10.773Z,18.30
2019-02-21T01:29:10.715Z,17.60
2019-02-21T01:30:10.790Z,18.50
2019-02-21T01:31:10.693Z,18.50
2019-02-21T01:32:10.687Z,18.70
2019-02-21T01:33:10.676Z,20.10
2019-02-21T01:34:10.697Z,20.30
2019-02-21T01:35:10.666Z,20.50
2019-02-21T01:36:10.648Z,20.50
2019-02-21T01:37:10.642Z,19.20
2019-02-21T01:38:10.624Z,19.60
2019-02-21T01:39:10.649Z,19.20
2019-02-21T01:40:10.651Z,19.40
2019-02-21T01:41:10.593Z,19.40
2019-02-21T01:42:10.587Z,20.00
2019-02-21T01:43:10.684Z,20.20
2019-02-21T01:44:10.556Z,20.20
2019-02-21T01:45:10.597Z,21.50
2019-02-21T01:46:10.550Z,21.60
2019-02-21T01:47:10.540Z,21.90
2019-02-21T01:48:10.541Z,24.00
2019-02-21T01:49:10.522Z,23.70
2019-02-21T01:50:10.520Z,21.40
2019-02-21T01:51:10.594Z,21.90
2019-02-21T01:52:10.473Z,20.40
2019-02-21T01:53:10.476Z,21.30
2019-02-21T01:54:10.456Z,21.20
2019-02-21T01:55:10.442Z,44.90
2019-02-21T01:56:10.456Z,20.40
2019-02-21T01:57:10.434Z,20.90
2019-02-21T01:58:10.405Z,27.10
2019-02-21T01:59:10.417Z,24.00
2019-02-21T02:00:10.384Z,22.10
2019-02-21T02:01:10.403Z,22.40
2019-02-21T02:02:10.397Z,21.10
2019-02-21T02:03:10.357Z,21.20
2019-02-21T02:04:10.379Z,21.70
2019-02-21T02:05:10.329Z,22.50
2019-02-21T02:06:10.349Z,24.80
2019-02-21T02:07:10.307Z,24.00
2019-02-21T02:08:10.306Z,25.30
2019-02-21T02:09:10.288Z,26.80
2019-02-21T02:10:10.283Z,27.50
2019-02-21T02:11:10.311Z,27.20
2019-02-21T02:12:10.284Z,26.20
2019-02-21T02:13:21.681Z,25.90
2019-02-21T02:14:11.234Z,26.50
2019-02-21T02:15:10.227Z,26.60
2019-02-21T02:16:10.257Z,26.30
2019-02-21T02:17:10.209Z,28.10
2019-02-21T02:18:10.234Z,30.20
2019-02-21T02:19:10.239Z,28.60
2019-02-21T02:20:10.202Z,26.80
2019-02-21T02:21:10.156Z,26.70
2019-02-21T02:22:10.170Z,25.70
2019-02-21T02:23:10.169Z,23.80
2019-02-21T02:24:10.126Z,24.30
2019-02-21T02:25:10.119Z,22.60
2019-02-21T02:26:10.107Z,22.50
2019-02-21T02:27:10.119Z,23.70
2019-02-21T02:28:10.137Z,21.80
2019-02-21T02:29:10.074Z,22.00
2019-02-21T02:30:10.069Z,21.30
2019-02-21T02:31:21.848Z,20.90
2019-02-21T02:32:11.171Z,20.80
2019-02-21T02:33:10.031Z,19.70
2019-02-21T02:34:10.041Z,19.80
2019-02-21T02:35:10.012Z,19.10
2019-02-21T02:36:10.009Z,19.10
2019-02-21T02:37:10.054Z,19.20
2019-02-21T02:38:10.000Z,20.90
2019-02-21T02:39:09.971Z,20.00
2019-02-21T02:40:09.970Z,19.30
2019-02-21T02:41:09.966Z,19.50
2019-02-21T02:42:09.938Z,18.40
2019-02-21T02:43:09.962Z,19.60
2019-02-21T02:44:09.962Z,19.00
2019-02-21T02:45:09.899Z,18.20
2019-02-21T02:46:09.900Z,19.80
2019-02-21T02:47:09.878Z,19.00
2019-02-21T02:48:10.014Z,18.10
2019-02-21T02:49:09.862Z,18.70
2019-02-21T02:50:09.847Z,17.40
2019-02-21T02:51:09.877Z,18.90
2019-02-21T02:52:09.830Z,19.40
2019-02-21T02:53:09.845Z,19.30
2019-02-21T02:54:09.826Z,18.80
2019-02-21T02:55:09.830Z,18.20
2019-02-21T02:56:09.781Z,20.00
2019-02-21T02:57:09.782Z,21.50
2019-02-21T02:58:09.793Z,19.90
2019-02-21T02:59:09.753Z,20.90
2019-02-21T03:00:09.776Z,19.20
2019-02-21T03:01:09.757Z,19.90
2019-02-21T03:02:09.739Z,18.90
2019-02-21T03:03:09.711Z,18.30
2019-02-21T03:04:09.759Z,19.80
2019-02-21T03:05:09.687Z,19.20
2019-02-21T03:06:09.698Z,18.20
2019-02-21T03:07:09.664Z,19.30
2019-02-21T03:08:09.651Z,19.80
2019-02-21T03:09:09.669Z,18.10
2019-02-21T03:10:09.630Z,18.30
2019-02-21T03:11:09.620Z,18.70
2019-02-21T03:12:09.676Z,19.20
2019-02-21T03:13:09.599Z,20.20
2019-02-21T03:14:09.601Z,20.00
2019-02-21T03:15:09.600Z,20.00
2019-02-21T03:16:09.564Z,18.70
2019-02-21T03:17:09.575Z,18.00
2019-02-21T03:18:09.587Z,17.90
2019-02-21T03:19:09.537Z,18.70
2019-02-21T03:20:09.553Z,17.90
2019-02-21T03:21:09.513Z,18.30
2019-02-21T03:22:09.501Z,18.20
2019-02-21T03:23:09.498Z,19.30
2019-02-21T03:24:09.485Z,18.30
2019-02-21T03:25:09.509Z,17.60
2019-02-21T03:26:09.480Z,17.10
2019-02-21T03:27:09.487Z,16.50
2019-02-21T03:28:09.448Z,17.00
2019-02-21T03:29:09.475Z,17.20
2019-02-21T03:30:12.264Z,16.80
2019-02-21T03:31:09.476Z,17.50
2019-02-21T03:32:09.423Z,17.80
2019-02-21T03:33:09.385Z,16.70
2019-02-21T03:34:09.434Z,17.20
2019-02-21T03:35:09.391Z,16.30
2019-02-21T03:36:09.400Z,17.20
2019-02-21T03:37:09.345Z,17.00
2019-02-21T03:38:09.333Z,16.90
2019-02-21T03:39:09.339Z,17.10
2019-02-21T03:40:09.337Z,21.60
2019-02-21T03:41:09.336Z,16.00
2019-02-21T03:42:09.300Z,16.80
2019-02-21T03:43:09.297Z,17.10
2019-02-21T03:44:09.283Z,17.10
2019-02-21T03:45:09.257Z,17.40
2019-02-21T03:46:09.282Z,17.50
2019-02-21T03:47:09.251Z,17.70
2019-02-21T03:48:09.266Z,17.10
2019-02-21T03:49:09.217Z,17.80
2019-02-21T03:50:09.224Z,17.30
2019-02-21T03:51:09.237Z,17.30
2019-02-21T03:52:09.198Z,16.30
2019-02-21T03:53:09.195Z,15.60
2019-02-21T03:54:09.168Z,16.20
2019-02-21T03:55:09.166Z,15.50
2019-02-21T03:56:09.172Z,16.80
2019-02-21T03:57:09.131Z,16.00
2019-02-21T03:58:09.120Z,16.00
2019-02-21T03:59:09.265Z,15.50
2019-02-21T04:00:09.126Z,14.90
2019-02-21T04:01:09.120Z,15.60
2019-02-21T04:02:09.079Z,15.10
2019-02-21T04:03:09.072Z,15.20
2019-02-21T04:04:09.084Z,14.60
2019-02-21T04:05:09.052Z,15.80
2019-02-21T04:06:09.067Z,16.60
2019-02-21T04:07:09.027Z,16.40
2019-02-21T04:08:09.018Z,16.20
2019-02-21T04:09:09.011Z,15.70
2019-02-21T04:10:09.011Z,16.90
2019-02-21T04:11:09.073Z,16.60
2019-02-21T04:12:08.973Z,16.60
2019-02-21T04:13:08.967Z,17.30
2019-02-21T04:14:08.978Z,16.90
2019-02-21T04:15:08.941Z,16.20
2019-02-21T04:16:08.961Z,16.10
2019-02-21T04:17:08.945Z,17.40
2019-02-21T04:18:08.917Z,17.90
2019-02-21T04:19:08.912Z,18.00
2019-02-21T04:20:08.895Z,17.60
2019-02-21T04:21:08.887Z,17.40
2019-02-21T04:22:08.902Z,17.10
2019-02-21T04:23:08.956Z,17.30
2019-02-21T04:24:08.851Z,17.30
2019-02-21T04:25:08.847Z,17.10
2019-02-21T04:26:08.850Z,17.60
2019-02-21T04:27:08.819Z,16.70
2019-02-21T04:28:08.868Z,16.20
2019-02-21T04:29:08.808Z,17.70
2019-02-21T04:30:08.798Z,16.80
2019-02-21T04:31:08.777Z,17.30
2019-02-21T04:32:16.594Z,17.70
2019-02-21T04:33:09.783Z,18.10
2019-02-21T04:34:08.791Z,17.90
2019-02-21T04:35:08.785Z,18.90
2019-02-21T04:36:08.725Z,18.60
2019-02-21T04:37:08.817Z,18.00
2019-02-21T04:38:08.727Z,18.80
2019-02-21T04:39:08.689Z,17.80
2019-02-21T04:40:08.720Z,17.20
2019-02-21T04:41:08.730Z,17.40
2019-02-21T04:42:08.664Z,17.10
2019-02-21T04:43:08.648Z,16.40
2019-02-21T04:44:08.662Z,16.20
2019-02-21T04:45:08.623Z,15.90
2019-02-21T04:46:08.674Z,15.50
2019-02-21T04:47:08.627Z,16.00
2019-02-21T04:48:08.597Z,17.00
2019-02-21T04:49:08.614Z,16.40
2019-02-21T04:50:08.588Z,16.30
2019-02-21T04:51:08.575Z,16.60
2019-02-21T04:52:08.561Z,16.60
2019-02-21T04:53:08.548Z,15.90
2019-02-21T04:54:08.531Z,16.10
2019-02-21T04:55:08.550Z,17.40
2019-02-21T04:56:08.516Z,16.40
2019-02-21T04:57:08.506Z,16.80
2019-02-21T04:58:08.499Z,16.00
2019-02-21T04:59:08.520Z,16.60
2019-02-21T05:00:08.507Z,16.70
2019-02-21T05:01:08.466Z,16.80
2019-02-21T05:02:08.456Z,16.30
2019-02-21T05:03:08.436Z,17.10
2019-02-21T05:04:08.443Z,17.70
2019-02-21T05:05:08.462Z,16.90
2019-02-21T05:06:08.412Z,17.70
2019-02-21T05:07:08.487Z,17.80
2019-02-21T05:08:08.382Z,17.20
2019-02-21T05:09:08.387Z,16.20
2019-02-21T05:10:08.438Z,16.00
2019-02-21T05:11:08.352Z,15.40
2019-02-21T05:12:08.340Z,15.80
2019-02-21T05:13:08.330Z,16.00
2019-02-21T05:14:08.325Z,15.80
2019-02-21T05:15:08.315Z,16.60
2019-02-21T05:16:08.330Z,16.40
2019-02-21T05:17:08.308Z,15.80
2019-02-21T05:18:08.281Z,15.70
2019-02-21T05:19:08.271Z,16.90
2019-02-21T05:20:08.268Z,17.40
2019-02-21T05:21:08.275Z,16.20
2019-02-21T05:22:08.286Z,16.90
2019-02-21T05:23:08.224Z,17.50
2019-02-21T05:24:08.226Z,17.80
2019-02-21T05:25:08.219Z,55.10
2019-02-21T05:26:08.240Z,19.60
2019-02-21T05:27:08.196Z,17.70
2019-02-21T05:28:08.215Z,17.60
2019-02-21T05:29:08.189Z,45.70
2019-02-21T05:30:08.170Z,19.70
2019-02-21T05:31:08.166Z,18.50
2019-02-21T05:32:08.139Z,17.50
2019-02-21T05:33:08.127Z,15.90
2019-02-21T05:34:08.155Z,15.90
2019-02-21T05:35:08.099Z,16.70
2019-02-21T05:36:08.134Z,15.90
2019-02-21T05:37:08.097Z,15.40
2019-02-21T05:38:08.069Z,15.70
2019-02-21T05:39:08.061Z,15.60
2019-02-21T05:40:08.070Z,16.10
2019-02-21T05:41:08.036Z,15.60
2019-02-21T05:42:08.056Z,16.00
2019-02-21T05:43:08.014Z,15.90
2019-02-21T05:44:08.003Z,16.40
2019-02-21T05:45:10.747Z,15.70
2019-02-21T05:46:08.004Z,16.40
2019-02-21T05:47:08.020Z,15.90
2019-02-21T05:48:07.971Z,16.20
2019-02-21T05:49:07.952Z,17.10
2019-02-21T05:50:08.096Z,16.50
2019-02-21T05:51:07.952Z,17.10
2019-02-21T05:52:07.967Z,17.40
2019-02-21T05:53:07.971Z,17.40
2019-02-21T05:54:07.899Z,18.10
2019-02-21T05:55:07.912Z,18.40
2019-02-21T05:56:07.875Z,19.30
2019-02-21T05:57:07.877Z,20.00
2019-02-21T05:58:07.902Z,20.40
2019-02-21T05:59:07.860Z,20.30
2019-02-21T06:00:07.837Z,20.10
2019-02-21T06:01:07.827Z,18.90
2019-02-21T06:02:07.814Z,19.60
2019-02-21T06:03:07.844Z,19.50
2019-02-21T06:04:07.814Z,20.50
2019-02-21T06:05:08.804Z,20.20
2019-02-21T06:06:07.801Z,19.80
2019-02-21T06:07:09.876Z,19.30
2019-02-21T06:08:07.750Z,18.50
2019-02-21T06:09:07.775Z,19.20
2019-02-21T06:10:07.740Z,18.00
2019-02-21T06:11:07.818Z,18.90
2019-02-21T06:12:07.710Z,19.10
2019-02-21T06:13:07.707Z,19.30
2019-02-21T06:14:07.688Z,18.20
2019-02-21T06:15:07.718Z,18.00
2019-02-21T06:16:07.680Z,18.50
2019-02-21T06:17:07.717Z,18.00
2019-02-21T06:18:07.667Z,18.60
2019-02-21T06:19:07.636Z,17.90
2019-02-21T06:20:07.652Z,17.70
2019-02-21T06:21:07.626Z,17.80
2019-02-21T06:22:10.689Z,17.50
2019-02-21T06:23:07.676Z,17.10
2019-02-21T06:24:07.585Z,17.20
2019-02-21T06:25:07.630Z,19.60
2019-02-21T06:26:07.565Z,19.10
2019-02-21T06:27:07.560Z,20.20
2019-02-21T06:28:07.562Z,20.60
2019-02-21T06:29:09.782Z,20.50
2019-02-21T06:30:07.635Z,19.70
2019-02-21T06:31:07.508Z,21.70
2019-02-21T06:32:14.201Z,20.90
2019-02-21T06:33:08.489Z,21.00
2019-02-21T06:34:07.476Z,19.50
2019-02-21T06:35:07.515Z,18.50
2019-02-21T06:36:07.474Z,19.30
2019-02-21T06:37:07.456Z,19.30
2019-02-21T06:38:07.445Z,19.00
2019-02-21T06:39:07.426Z,19.50
2019-02-21T06:40:07.487Z,18.60
2019-02-21T06:41:07.419Z,17.50
2019-02-21T06:42:07.397Z,17.50
2019-02-21T06:43:07.408Z,16.90
2019-02-21T06:44:07.383Z,16.80
2019-02-21T06:45:07.365Z,17.10
2019-02-21T06:46:07.398Z,16.40
2019-02-21T06:47:07.340Z,16.70
2019-02-21T06:48:07.332Z,15.70
2019-02-21T06:49:07.327Z,16.50
2019-02-21T06:50:07.314Z,16.40
2019-02-21T06:51:07.371Z,16.70
2019-02-21T06:52:07.287Z,16.30
2019-02-21T06:53:07.307Z,15.90
2019-02-21T06:54:07.287Z,16.10
2019-02-21T06:55:07.259Z,15.90
2019-02-21T06:56:07.282Z,16.20
2019-02-21T06:57:07.239Z,16.50
2019-02-21T06:58:07.227Z,16.50
2019-02-21T06:59:07.232Z,15.70
2019-02-21T07:00:07.215Z,15.70
2019-02-21T07:01:07.251Z,16.30
2019-02-21T07:02:07.185Z,16.30
2019-02-21T07:03:15.403Z,15.50
2019-02-21T07:04:08.164Z,15.60
2019-02-21T07:05:07.153Z,16.50
2019-02-21T07:06:07.225Z,16.50
2019-02-21T07:07:07.159Z,16.30
2019-02-21T07:08:08.859Z,15.70
2019-02-21T07:09:07.110Z,15.50
2019-02-21T07:10:07.101Z,15.80
2019-02-21T07:11:07.100Z,15.20
2019-02-21T07:12:07.104Z,15.40
2019-02-21T07:13:07.100Z,15.80
2019-02-21T07:14:07.075Z,15.10
2019-02-21T07:15:07.049Z,15.20
2019-02-21T07:16:07.042Z,15.50
2019-02-21T07:17:08.530Z,15.70
2019-02-21T07:18:07.037Z,15.30
2019-02-21T07:19:07.087Z,15.10
2019-02-21T07:20:06.991Z,15.70
2019-02-21T07:21:07.014Z,15.90
2019-02-21T07:22:07.053Z,17.10
2019-02-21T07:23:06.985Z,16.10
2019-02-21T07:24:06.984Z,15.90
2019-02-21T07:25:06.990Z,15.90
2019-02-21T07:26:06.931Z,15.80
2019-02-21T07:27:06.930Z,17.10
2019-02-21T07:28:11.716Z,17.00
2019-02-21T07:29:07.902Z,17.00
2019-02-21T07:30:06.888Z,16.60
2019-02-21T07:31:06.924Z,15.70
2019-02-21T07:32:06.868Z,16.10
2019-02-21T07:33:06.877Z,15.50
2019-02-21T07:34:07.148Z,15.30
2019-02-21T07:35:06.838Z,15.70
2019-02-21T07:36:06.828Z,16.00
2019-02-21T07:37:17.848Z,15.60
2019-02-21T07:38:07.830Z,14.90
2019-02-21T07:39:16.923Z,16.20
2019-02-21T07:40:07.782Z,15.90
2019-02-21T07:41:06.781Z,15.40
2019-02-21T07:42:06.775Z,15.10
2019-02-21T07:43:06.837Z,14.90
2019-02-21T07:44:12.068Z,14.80
2019-02-21T07:45:07.834Z,15.30
2019-02-21T07:46:07.046Z,15.00
2019-02-21T07:47:06.719Z,15.50
2019-02-21T07:48:06.728Z,15.20
2019-02-21T07:49:06.716Z,14.60
2019-02-21T07:50:06.678Z,14.90
2019-02-21T07:51:06.674Z,14.20
2019-02-21T07:52:06.659Z,15.60
2019-02-21T07:53:06.647Z,14.80
2019-02-21T07:54:06.660Z,15.90
2019-02-21T07:55:06.624Z,16.20
2019-02-21T07:56:06.632Z,16.70
2019-02-21T07:57:08.451Z,16.70
2019-02-21T07:58:06.622Z,18.60
2019-02-21T07:59:06.610Z,16.90
2019-02-21T08:00:06.598Z,15.70
2019-02-21T08:01:06.578Z,16.30
2019-02-21T08:02:06.561Z,15.20
2019-02-21T08:03:09.074Z,14.50
2019-02-21T08:04:06.540Z,15.10
2019-02-21T08:05:06.538Z,14.90
2019-02-21T08:06:06.506Z,13.80
2019-02-21T08:07:06.498Z,14.10
2019-02-21T08:08:09.131Z,14.80
2019-02-21T08:09:06.473Z,14.40
2019-02-21T08:10:06.512Z,15.10
2019-02-21T08:11:07.234Z,14.60
2019-02-21T08:12:06.461Z,14.60
2019-02-21T08:13:06.430Z,14.60
2019-02-21T08:14:06.448Z,15.30
2019-02-21T08:15:06.445Z,15.40
2019-02-21T08:16:06.396Z,14.10
2019-02-21T08:17:06.395Z,15.80
2019-02-21T08:18:06.375Z,16.00
2019-02-21T08:19:06.361Z,16.50
2019-02-21T08:20:08.769Z,16.60
2019-02-21T08:21:06.377Z,16.20
2019-02-21T08:22:06.330Z,16.00
2019-02-21T08:23:06.327Z,16.30
2019-02-21T08:24:06.314Z,16.20
2019-02-21T08:25:06.322Z,16.10
2019-02-21T08:26:06.287Z,14.70
2019-02-21T08:27:06.303Z,15.00
2019-02-21T08:28:06.330Z,14.20
2019-02-21T08:29:06.393Z,14.50
2019-02-21T08:30:06.323Z,13.70
2019-02-21T08:31:06.238Z,13.70
2019-02-21T08:32:06.220Z,14.70
2019-02-21T08:33:06.286Z,14.60
2019-02-21T08:34:06.212Z,14.80
2019-02-21T08:35:06.977Z,14.70
2019-02-21T08:36:06.182Z,14.70
2019-02-21T08:37:08.661Z,16.50
2019-02-21T08:38:06.156Z,16.10
2019-02-21T08:39:06.147Z,16.10
2019-02-21T08:40:06.164Z,15.80
2019-02-21T08:41:06.133Z,15.90
2019-02-21T08:42:06.113Z,15.10
2019-02-21T08:43:06.108Z,14.70
2019-02-21T08:44:06.122Z,14.40
2019-02-21T08:45:06.116Z,14.90
2019-02-21T08:46:06.086Z,14.30
2019-02-21T08:47:06.059Z,15.00
2019-02-21T08:48:06.071Z,15.10
2019-02-21T08:49:06.039Z,15.30
2019-02-21T08:50:06.034Z,15.20
2019-02-21T08:51:06.434Z,14.90
2019-02-21T08:52:06.005Z,15.30
2019-02-21T08:53:05.995Z,14.00
2019-02-21T08:54:06.184Z,13.20
2019-02-21T08:55:05.977Z,14.00
2019-02-21T08:56:06.028Z,14.00
2019-02-21T08:57:05.949Z,13.70
2019-02-21T08:58:07.821Z,14.60
2019-02-21T08:59:05.932Z,14.40
2019-02-21T09:00:05.918Z,14.60
2019-02-21T09:01:05.911Z,15.40
2019-02-21T09:02:05.940Z,16.10
2019-02-21T09:03:05.895Z,15.60
2019-02-21T09:04:13.345Z,16.50
2019-02-21T09:05:09.346Z,15.50
2019-02-21T09:06:05.859Z,15.70
2019-02-21T09:07:05.917Z,14.70
2019-02-21T09:08:05.850Z,15.20
2019-02-21T09:09:05.874Z,15.30
2019-02-21T09:10:05.814Z,14.70
2019-02-21T09:11:05.802Z,15.60
2019-02-21T09:12:06.004Z,15.90
2019-02-21T09:13:05.790Z,15.40
2019-02-21T09:14:05.782Z,15.70
2019-02-21T09:15:05.759Z,15.10
2019-02-21T09:16:05.752Z,15.30
2019-02-21T09:17:05.794Z,15.10
2019-02-21T09:18:05.724Z,15.20
2019-02-21T09:19:05.740Z,15.10
2019-02-21T09:20:05.702Z,15.30
2019-02-21T09:21:05.694Z,15.00
2019-02-21T09:22:05.685Z,15.00
2019-02-21T09:23:05.696Z,14.10
2019-02-21T09:24:05.658Z,13.80
2019-02-21T09:25:05.682Z,14.90
2019-02-21T09:26:05.635Z,14.30
2019-02-21T09:27:05.628Z,14.50
2019-02-21T09:28:05.645Z,14.50
2019-02-21T09:29:05.610Z,14.60
2019-02-21T09:30:05.607Z,14.40
2019-02-21T09:31:05.719Z,15.10
2019-02-21T09:32:06.939Z,15.10
2019-02-21T09:33:14.781Z,14.20
2019-02-21T09:34:06.614Z,15.50
2019-02-21T09:35:05.543Z,13.80
2019-02-21T09:36:05.534Z,14.50
2019-02-21T09:37:05.653Z,14.70
2019-02-21T09:38:05.583Z,14.30
2019-02-21T09:39:05.499Z,14.50
2019-02-21T09:40:05.502Z,15.10
2019-02-21T09:41:05.478Z,14.40
2019-02-21T09:42:05.466Z,15.00
2019-02-21T09:43:05.478Z,15.20
2019-02-21T09:44:05.488Z,14.50
2019-02-21T09:45:05.430Z,15.20
2019-02-21T09:46:05.422Z,14.10
2019-02-21T09:47:05.437Z,14.20
2019-02-21T09:48:05.428Z,15.00
2019-02-21T09:49:05.393Z,15.30
2019-02-21T09:50:05.385Z,14.10
2019-02-21T09:51:05.373Z,14.20
2019-02-21T09:52:05.381Z,14.70
2019-02-21T09:53:05.429Z,13.60
2019-02-21T09:54:05.354Z,13.80
2019-02-21T09:55:05.324Z,13.70
2019-02-21T09:56:05.320Z,13.40
2019-02-21T09:57:12.831Z,12.70
2019-02-21T09:58:06.343Z,13.40
2019-02-21T09:59:05.320Z,12.20
2019-02-21T10:00:05.273Z,13.30
2019-02-21T10:01:05.255Z,13.30
2019-02-21T10:02:05.252Z,13.50
2019-02-21T10:03:05.301Z,13.00
2019-02-21T10:04:05.237Z,13.30
2019-02-21T10:05:05.726Z,13.50
2019-02-21T10:06:05.203Z,12.10
2019-02-21T10:07:05.194Z,12.40
2019-02-21T10:08:05.225Z,12.20
2019-02-21T10:09:05.177Z,12.70
2019-02-21T10:10:05.162Z,12.20
2019-02-21T10:11:05.164Z,12.60
2019-02-21T10:12:05.145Z,12.30
2019-02-21T10:13:05.178Z,12.40
2019-02-21T10:14:05.117Z,14.30
2019-02-21T10:15:05.103Z,13.80
2019-02-21T10:16:05.114Z,13.90
2019-02-21T10:17:05.102Z,13.40
2019-02-21T10:18:05.187Z,12.60
2019-02-21T10:19:05.067Z,13.00
2019-02-21T10:20:05.052Z,12.60
2019-02-21T10:21:05.036Z,12.40
2019-02-21T10:22:05.034Z,12.70
2019-02-21T10:23:05.043Z,12.20
2019-02-21T10:24:05.006Z,12.20
2019-02-21T10:25:05.003Z,12.60
2019-02-21T10:26:05.017Z,13.40
2019-02-21T10:27:04.974Z,12.10
2019-02-21T10:28:04.985Z,13.20
2019-02-21T10:29:04.965Z,13.20
2019-02-21T10:30:04.945Z,13.10
2019-02-21T10:31:04.941Z,14.10
2019-02-21T10:32:04.949Z,13.90
2019-02-21T10:33:04.939Z,13.90
2019-02-21T10:34:04.897Z,13.70
2019-02-21T10:35:04.890Z,13.50
2019-02-21T10:36:04.899Z,12.90
2019-02-21T10:37:04.864Z,13.60
2019-02-21T10:38:04.893Z,13.10
2019-02-21T10:39:04.908Z,12.70
2019-02-21T10:40:04.833Z,13.40
2019-02-21T10:41:04.866Z,13.50
2019-02-21T10:42:04.814Z,13.20
2019-02-21T10:43:04.835Z,14.00
2019-02-21T10:44:04.794Z,12.60
2019-02-21T10:45:04.779Z,12.60
2019-02-21T10:46:04.820Z,12.90
2019-02-21T10:47:04.759Z,12.60
2019-02-21T10:48:04.785Z,13.00
2019-02-21T10:49:04.746Z,13.00
2019-02-21T10:50:04.726Z,13.70
2019-02-21T10:51:04.730Z,14.10
2019-02-21T10:52:04.713Z,13.90
2019-02-21T10:53:04.698Z,14.30
2019-02-21T10:54:04.706Z,13.10
2019-02-21T10:55:04.668Z,13.40
2019-02-21T10:56:04.655Z,14.00
2019-02-21T10:57:04.647Z,13.80
2019-02-21T10:58:04.646Z,14.50
2019-02-21T10:59:04.681Z,14.50
2019-02-21T11:00:04.652Z,15.00
2019-02-21T11:01:04.605Z,14.30
2019-02-21T11:02:04.594Z,14.30
2019-02-21T11:03:04.584Z,14.60
2019-02-21T11:04:04.575Z,16.90
2019-02-21T11:05:04.595Z,14.10
2019-02-21T11:06:04.628Z,13.20
2019-02-21T11:07:04.540Z,13.30
2019-02-21T11:08:04.526Z,13.60
2019-02-21T11:09:04.519Z,13.80
2019-02-21T11:10:04.567Z,13.00
2019-02-21T11:11:04.501Z,13.50
2019-02-21T11:12:04.518Z,13.60
2019-02-21T11:13:04.501Z,14.40
2019-02-21T11:14:04.506Z,13.00
2019-02-21T11:15:04.462Z,14.00
2019-02-21T11:16:04.463Z,13.70
2019-02-21T11:17:04.448Z,14.10
2019-02-21T11:18:04.500Z,14.20
2019-02-21T11:19:04.422Z,14.70
2019-02-21T11:20:04.436Z,14.60
2019-02-21T11:21:04.750Z,14.20
2019-02-21T11:22:04.430Z,14.10
2019-02-21T11:23:06.497Z,15.60
2019-02-21T11:24:04.354Z,14.60
2019-02-21T11:25:04.366Z,14.30
2019-02-21T11:26:04.352Z,13.80
2019-02-21T11:27:04.329Z,14.80
2019-02-21T11:28:04.323Z,13.90
2019-02-21T11:29:04.311Z,13.40
2019-02-21T11:30:04.294Z,13.90
2019-02-21T11:31:04.306Z,13.40
2019-02-21T11:32:04.327Z,13.10
2019-02-21T11:33:04.255Z,14.00
2019-02-21T11:34:04.261Z,13.20
2019-02-21T11:35:06.542Z,14.00
2019-02-21T11:36:04.245Z,13.50
2019-02-21T11:37:04.210Z,13.30
2019-02-21T11:38:04.237Z,13.60
2019-02-21T11:39:04.223Z,14.40
2019-02-21T11:40:05.596Z,13.20
2019-02-21T11:41:04.211Z,14.20
2019-02-21T11:42:04.161Z,13.30
2019-02-21T11:43:04.188Z,13.80
2019-02-21T11:44:04.140Z,13.30
2019-02-21T11:45:04.147Z,14.00
2019-02-21T11:46:04.138Z,14.20
2019-02-21T11:47:04.102Z,14.50
2019-02-21T11:48:04.111Z,13.80
2019-02-21T11:49:04.103Z,13.20
2019-02-21T11:50:04.076Z,13.70
2019-02-21T11:51:04.082Z,13.80
2019-02-21T11:52:10.114Z,14.50
2019-02-21T11:53:05.071Z,13.80
2019-02-21T11:54:04.028Z,14.10
2019-02-21T11:55:04.091Z,13.70
2019-02-21T11:56:04.028Z,14.00
2019-02-21T11:57:03.991Z,13.50
2019-02-21T11:58:03.993Z,13.50
2019-02-21T11:59:03.985Z,13.60
2019-02-21T12:00:03.964Z,13.90
2019-02-21T12:01:04.053Z,14.70
2019-02-21T12:02:03.971Z,14.10
2019-02-21T12:03:03.946Z,14.40
2019-02-21T12:04:03.933Z,14.80
2019-02-21T12:05:03.918Z,14.60
2019-02-21T12:06:03.929Z,14.20
2019-02-21T12:07:03.917Z,13.50
2019-02-21T12:08:03.941Z,14.00
2019-02-21T12:09:03.926Z,14.30
2019-02-21T12:10:03.855Z,14.40
2019-02-21T12:11:03.888Z,14.30
2019-02-21T12:12:03.893Z,14.20
2019-02-21T12:13:03.827Z,13.70
2019-02-21T12:14:03.810Z,13.80
2019-02-21T12:15:03.946Z,13.80
2019-02-21T12:16:03.828Z,13.40
2019-02-21T12:17:03.798Z,14.10
2019-02-21T12:18:03.784Z,14.00
2019-02-21T12:19:03.766Z,13.50
2019-02-21T12:20:03.746Z,13.50
2019-02-21T12:21:03.809Z,14.20
2019-02-21T12:22:03.726Z,13.10
2019-02-21T12:23:03.746Z,13.20
2019-02-21T12:24:03.703Z,12.90
2019-02-21T12:25:03.694Z,13.60
2019-02-21T12:26:03.709Z,13.20
2019-02-21T12:27:03.693Z,13.20
2019-02-21T12:28:03.668Z,13.10
2019-02-21T12:29:03.705Z,13.90
2019-02-21T12:30:03.679Z,14.10
2019-02-21T12:31:03.659Z,13.10
2019-02-21T12:32:03.670Z,13.10
2019-02-21T12:33:03.768Z,12.80
2019-02-21T12:34:03.598Z,13.10
2019-02-21T12:35:03.594Z,12.10
2019-02-21T12:36:03.632Z,12.90
2019-02-21T12:37:03.647Z,12.10
2019-02-21T12:38:03.579Z,12.40
2019-02-21T12:39:03.536Z,13.00
2019-02-21T12:40:03.533Z,12.70
2019-02-21T12:41:03.528Z,11.90
2019-02-21T12:42:03.563Z,11.80
2019-02-21T12:43:03.522Z,12.20
2019-02-21T12:44:03.524Z,12.20
2019-02-21T12:45:03.471Z,12.40
2019-02-21T12:46:03.479Z,12.30
2019-02-21T12:47:03.506Z,12.30
2019-02-21T12:48:03.447Z,12.10
2019-02-21T12:49:03.455Z,13.00
2019-02-21T12:50:03.426Z,12.90
2019-02-21T12:51:03.417Z,12.50
2019-02-21T12:52:03.493Z,12.60